sensor_id;sensor_type;location;lat;lon;timestamp;temperature;humidity
55777;DHT22;54079;44.540;18.784;2023-06-19T00:00:20;16.20;92.00
55777;DHT22;54079;44.540;18.784;2023-06-19T00:02:46;16.10;92.10
55777;DHT22;54079;44.540;18.784;2023-06-19T00:05:12;16.20;92.30
55777;DHT22;54079;44.540;18.784;2023-06-19T00:07:39;16.20;92.30
55777;DHT22;54079;44.540;18.784;2023-06-19T00:10:05;16.20;92.40
55777;DHT22;54079;44.540;18.784;2023-06-19T00:12:32;16.20;92.10
55777;DHT22;54079;44.540;18.784;2023-06-19T00:14:58;16.20;92.50
55777;DHT22;54079;44.540;18.784;2023-06-19T00:17:24;16.10;92.40
55777;DHT22;54079;44.540;18.784;2023-06-19T00:19:52;15.90;93.20
55777;DHT22;54079;44.540;18.784;2023-06-19T00:22:19;15.90;93.20
55777;DHT22;54079;44.540;18.784;2023-06-19T00:24:45;15.70;93.90
55777;DHT22;54079;44.540;18.784;2023-06-19T00:27:11;16.00;94.00
55777;DHT22;54079;44.540;18.784;2023-06-19T00:29:37;15.90;93.70
55777;DHT22;54079;44.540;18.784;2023-06-19T00:32:03;16.00;93.80
55777;DHT22;54079;44.540;18.784;2023-06-19T00:34:30;16.00;94.40
55777;DHT22;54079;44.540;18.784;2023-06-19T00:36:59;15.90;94.40
55777;DHT22;54079;44.540;18.784;2023-06-19T00:39:25;16.00;94.20
55777;DHT22;54079;44.540;18.784;2023-06-19T00:41:52;15.80;94.10
55777;DHT22;54079;44.540;18.784;2023-06-19T00:44:18;15.70;94.30
55777;DHT22;54079;44.540;18.784;2023-06-19T00:46:44;15.70;93.90
55777;DHT22;54079;44.540;18.784;2023-06-19T00:49:11;15.80;93.70
55777;DHT22;54079;44.540;18.784;2023-06-19T00:51:37;15.70;94.50
55777;DHT22;54079;44.540;18.784;2023-06-19T00:54:04;15.70;94.50
55777;DHT22;54079;44.540;18.784;2023-06-19T00:56:31;15.80;94.90
55777;DHT22;54079;44.540;18.784;2023-06-19T00:58:57;15.80;94.90
55777;DHT22;54079;44.540;18.784;2023-06-19T01:01:23;15.80;94.40
55777;DHT22;54079;44.540;18.784;2023-06-19T01:03:49;15.70;94.70
55777;DHT22;54079;44.540;18.784;2023-06-19T01:06:22;15.50;94.90
55777;DHT22;54079;44.540;18.784;2023-06-19T01:09:02;15.40;94.90
55777;DHT22;54079;44.540;18.784;2023-06-19T01:11:40;15.50;95.30
55777;DHT22;54079;44.540;18.784;2023-06-19T01:14:12;15.40;95.90
55777;DHT22;54079;44.540;18.784;2023-06-19T01:16:40;15.50;95.50
55777;DHT22;54079;44.540;18.784;2023-06-19T01:19:10;15.40;95.10
55777;DHT22;54079;44.540;18.784;2023-06-19T01:21:36;15.50;95.90
55777;DHT22;54079;44.540;18.784;2023-06-19T01:24:03;15.60;96.10
55777;DHT22;54079;44.540;18.784;2023-06-19T01:26:29;15.60;96.70
55777;DHT22;54079;44.540;18.784;2023-06-19T01:28:56;15.70;96.90
55777;DHT22;54079;44.540;18.784;2023-06-19T01:31:26;15.70;96.00
55777;DHT22;54079;44.540;18.784;2023-06-19T01:33:54;15.60;95.60
55777;DHT22;54079;44.540;18.784;2023-06-19T01:36:23;15.40;95.50
55777;DHT22;54079;44.540;18.784;2023-06-19T01:38:50;15.30;95.70
55777;DHT22;54079;44.540;18.784;2023-06-19T01:41:17;15.30;96.40
55777;DHT22;54079;44.540;18.784;2023-06-19T01:43:45;15.30;97.10
55777;DHT22;54079;44.540;18.784;2023-06-19T01:46:11;15.30;97.40
55777;DHT22;54079;44.540;18.784;2023-06-19T01:48:38;15.40;97.00
55777;DHT22;54079;44.540;18.784;2023-06-19T01:51:04;15.40;96.70
55777;DHT22;54079;44.540;18.784;2023-06-19T01:53:31;15.20;97.50
55777;DHT22;54079;44.540;18.784;2023-06-19T01:56:01;15.00;97.90
55777;DHT22;54079;44.540;18.784;2023-06-19T01:58:26;14.90;98.40
55777;DHT22;54079;44.540;18.784;2023-06-19T02:00:52;15.10;98.10
55777;DHT22;54079;44.540;18.784;2023-06-19T02:03:19;15.10;99.30
55777;DHT22;54079;44.540;18.784;2023-06-19T02:05:44;15.10;99.10
55777;DHT22;54079;44.540;18.784;2023-06-19T02:08:10;15.20;99.60
55777;DHT22;54079;44.540;18.784;2023-06-19T02:10:36;15.30;98.90
55777;DHT22;54079;44.540;18.784;2023-06-19T02:13:02;15.30;98.20
55777;DHT22;54079;44.540;18.784;2023-06-19T02:15:28;15.30;97.30
55777;DHT22;54079;44.540;18.784;2023-06-19T02:17:57;15.20;98.00
55777;DHT22;54079;44.540;18.784;2023-06-19T02:20:24;15.20;97.90
55777;DHT22;54079;44.540;18.784;2023-06-19T02:22:50;15.20;97.40
55777;DHT22;54079;44.540;18.784;2023-06-19T02:25:17;15.30;97.90
55777;DHT22;54079;44.540;18.784;2023-06-19T02:27:43;15.30;98.00
55777;DHT22;54079;44.540;18.784;2023-06-19T02:30:09;15.30;98.00
55777;DHT22;54079;44.540;18.784;2023-06-19T02:32:35;15.30;98.00
55777;DHT22;54079;44.540;18.784;2023-06-19T02:35:02;15.30;98.40
55777;DHT22;54079;44.540;18.784;2023-06-19T02:37:28;15.10;98.50
55777;DHT22;54079;44.540;18.784;2023-06-19T02:39:55;15.20;98.30
55777;DHT22;54079;44.540;18.784;2023-06-19T02:42:21;15.20;99.20
55777;DHT22;54079;44.540;18.784;2023-06-19T02:44:47;15.10;99.40
55777;DHT22;54079;44.540;18.784;2023-06-19T02:47:13;15.10;98.80
55777;DHT22;54079;44.540;18.784;2023-06-19T02:49:39;15.20;98.30
55777;DHT22;54079;44.540;18.784;2023-06-19T02:52:05;15.20;98.20
55777;DHT22;54079;44.540;18.784;2023-06-19T02:54:31;15.10;98.00
55777;DHT22;54079;44.540;18.784;2023-06-19T02:56:57;15.10;99.30
55777;DHT22;54079;44.540;18.784;2023-06-19T02:59:23;15.20;99.50
55777;DHT22;54079;44.540;18.784;2023-06-19T03:01:49;15.30;99.50
55777;DHT22;54079;44.540;18.784;2023-06-19T03:04:15;15.20;99.10
55777;DHT22;54079;44.540;18.784;2023-06-19T03:06:41;15.20;98.30
55777;DHT22;54079;44.540;18.784;2023-06-19T03:09:07;15.10;98.30
55777;DHT22;54079;44.540;18.784;2023-06-19T03:11:40;15.10;98.20
55777;DHT22;54079;44.540;18.784;2023-06-19T03:14:06;15.10;98.10
55777;DHT22;54079;44.540;18.784;2023-06-19T03:16:34;15.30;98.40
55777;DHT22;54079;44.540;18.784;2023-06-19T03:19:00;15.30;98.60
55777;DHT22;54079;44.540;18.784;2023-06-19T03:21:26;15.40;98.80
55777;DHT22;54079;44.540;18.784;2023-06-19T03:23:53;15.50;98.40
55777;DHT22;54079;44.540;18.784;2023-06-19T03:26:20;15.60;97.80
55777;DHT22;54079;44.540;18.784;2023-06-19T03:28:46;15.60;97.70
55777;DHT22;54079;44.540;18.784;2023-06-19T03:31:15;15.60;97.20
55777;DHT22;54079;44.540;18.784;2023-06-19T03:33:41;15.50;97.80
55777;DHT22;54079;44.540;18.784;2023-06-19T03:36:07;15.60;97.50
55777;DHT22;54079;44.540;18.784;2023-06-19T03:38:36;15.70;97.70
55777;DHT22;54079;44.540;18.784;2023-06-19T03:41:02;15.80;97.60
55777;DHT22;54079;44.540;18.784;2023-06-19T03:43:28;15.90;97.80
55777;DHT22;54079;44.540;18.784;2023-06-19T03:45:54;16.00;97.00
55777;DHT22;54079;44.540;18.784;2023-06-19T03:48:20;16.10;96.80
55777;DHT22;54079;44.540;18.784;2023-06-19T03:50:46;16.10;96.40
55777;DHT22;54079;44.540;18.784;2023-06-19T03:53:12;16.20;96.10
55777;DHT22;54079;44.540;18.784;2023-06-19T03:55:38;16.20;96.00
55777;DHT22;54079;44.540;18.784;2023-06-19T03:58:04;16.20;95.70
55777;DHT22;54079;44.540;18.784;2023-06-19T04:00:30;16.30;95.60
55777;DHT22;54079;44.540;18.784;2023-06-19T04:02:55;16.50;95.30
55777;DHT22;54079;44.540;18.784;2023-06-19T04:05:22;16.50;95.10
55777;DHT22;54079;44.540;18.784;2023-06-19T04:07:48;16.60;95.00
55777;DHT22;54079;44.540;18.784;2023-06-19T04:10:14;16.70;95.00
55777;DHT22;54079;44.540;18.784;2023-06-19T04:12:40;16.80;95.30
55777;DHT22;54079;44.540;18.784;2023-06-19T04:15:09;16.80;95.80
55777;DHT22;54079;44.540;18.784;2023-06-19T04:17:36;18.20;93.60
55777;DHT22;54079;44.540;18.784;2023-06-19T04:20:06;19.50;91.80
55777;DHT22;54079;44.540;18.784;2023-06-19T04:22:41;20.70;90.10
55777;DHT22;54079;44.540;18.784;2023-06-19T04:25:08;21.80;86.80
55777;DHT22;54079;44.540;18.784;2023-06-19T04:27:35;22.70;83.90
55777;DHT22;54079;44.540;18.784;2023-06-19T04:30:05;23.60;81.40
55777;DHT22;54079;44.540;18.784;2023-06-19T04:32:33;24.40;79.00
55777;DHT22;54079;44.540;18.784;2023-06-19T04:35:00;25.10;75.80
55777;DHT22;54079;44.540;18.784;2023-06-19T04:37:26;25.50;73.70
55777;DHT22;54079;44.540;18.784;2023-06-19T04:39:52;26.00;72.80
55777;DHT22;54079;44.540;18.784;2023-06-19T04:42:18;26.60;72.10
55777;DHT22;54079;44.540;18.784;2023-06-19T04:44:48;26.40;71.60
55777;DHT22;54079;44.540;18.784;2023-06-19T04:47:18;27.30;70.70
55777;DHT22;54079;44.540;18.784;2023-06-19T04:49:44;28.00;69.90
55777;DHT22;54079;44.540;18.784;2023-06-19T04:52:10;28.60;69.10
55777;DHT22;54079;44.540;18.784;2023-06-19T04:54:37;28.20;67.90
55777;DHT22;54079;44.540;18.784;2023-06-19T04:57:03;27.80;69.10
55777;DHT22;54079;44.540;18.784;2023-06-19T04:59:30;28.00;68.40
55777;DHT22;54079;44.540;18.784;2023-06-19T05:01:59;28.00;68.80
55777;DHT22;54079;44.540;18.784;2023-06-19T05:04:25;28.30;67.90
55777;DHT22;54079;44.540;18.784;2023-06-19T05:06:52;28.90;67.40
55777;DHT22;54079;44.540;18.784;2023-06-19T05:09:18;29.70;66.60
55777;DHT22;54079;44.540;18.784;2023-06-19T05:11:44;30.20;65.60
55777;DHT22;54079;44.540;18.784;2023-06-19T05:14:10;30.80;64.20
55777;DHT22;54079;44.540;18.784;2023-06-19T05:16:36;31.30;64.10
55777;DHT22;54079;44.540;18.784;2023-06-19T05:19:02;31.70;63.10
55777;DHT22;54079;44.540;18.784;2023-06-19T05:21:28;32.30;62.80
55777;DHT22;54079;44.540;18.784;2023-06-19T05:23:54;32.20;62.50
55777;DHT22;54079;44.540;18.784;2023-06-19T05:26:20;32.90;61.90
55777;DHT22;54079;44.540;18.784;2023-06-19T05:28:47;33.80;61.30
55777;DHT22;54079;44.540;18.784;2023-06-19T05:31:13;34.50;60.20
55777;DHT22;54079;44.540;18.784;2023-06-19T05:33:40;35.40;58.90
55777;DHT22;54079;44.540;18.784;2023-06-19T05:36:06;35.90;58.40
55777;DHT22;54079;44.540;18.784;2023-06-19T05:38:32;35.30;58.90
55777;DHT22;54079;44.540;18.784;2023-06-19T05:41:01;36.00;58.50
55777;DHT22;54079;44.540;18.784;2023-06-19T05:43:27;36.50;58.20
55777;DHT22;54079;44.540;18.784;2023-06-19T05:45:53;37.20;57.60
55777;DHT22;54079;44.540;18.784;2023-06-19T05:48:21;37.70;56.70
55777;DHT22;54079;44.540;18.784;2023-06-19T05:50:47;37.80;56.70
55777;DHT22;54079;44.540;18.784;2023-06-19T05:53:13;37.80;56.70
55777;DHT22;54079;44.540;18.784;2023-06-19T05:55:39;37.90;56.80
55777;DHT22;54079;44.540;18.784;2023-06-19T05:58:05;38.80;56.20
55777;DHT22;54079;44.540;18.784;2023-06-19T06:00:32;39.30;55.10
55777;DHT22;54079;44.540;18.784;2023-06-19T06:02:58;39.20;55.50
55777;DHT22;54079;44.540;18.784;2023-06-19T06:05:27;39.70;54.90
55777;DHT22;54079;44.540;18.784;2023-06-19T06:07:54;39.90;54.80
55777;DHT22;54079;44.540;18.784;2023-06-19T06:10:21;40.50;54.60
55777;DHT22;54079;44.540;18.784;2023-06-19T06:12:48;41.80;53.20
55777;DHT22;54079;44.540;18.784;2023-06-19T06:15:15;42.70;52.30
55777;DHT22;54079;44.540;18.784;2023-06-19T06:17:41;43.30;51.20
55777;DHT22;54079;44.540;18.784;2023-06-19T06:20:07;43.60;51.40
55777;DHT22;54079;44.540;18.784;2023-06-19T06:22:40;43.70;51.10
55777;DHT22;54079;44.540;18.784;2023-06-19T06:25:06;43.70;51.00
55777;DHT22;54079;44.540;18.784;2023-06-19T06:27:33;43.30;51.20
55777;DHT22;54079;44.540;18.784;2023-06-19T06:30:08;44.00;50.80
55777;DHT22;54079;44.540;18.784;2023-06-19T06:32:38;43.70;49.30
55777;DHT22;54079;44.540;18.784;2023-06-19T06:35:04;43.90;50.30
55777;DHT22;54079;44.540;18.784;2023-06-19T06:37:30;44.60;48.90
55777;DHT22;54079;44.540;18.784;2023-06-19T06:39:56;44.40;49.60
55777;DHT22;54079;44.540;18.784;2023-06-19T06:42:22;45.40;49.20
55777;DHT22;54079;44.540;18.784;2023-06-19T06:44:48;46.00;48.60
55777;DHT22;54079;44.540;18.784;2023-06-19T06:47:14;46.40;48.40
55777;DHT22;54079;44.540;18.784;2023-06-19T06:49:44;46.20;48.60
55777;DHT22;54079;44.540;18.784;2023-06-19T06:52:13;46.20;47.50
55777;DHT22;54079;44.540;18.784;2023-06-19T06:54:39;45.20;48.10
55777;DHT22;54079;44.540;18.784;2023-06-19T06:57:05;44.40;48.90
55777;DHT22;54079;44.540;18.784;2023-06-19T06:59:31;45.80;48.40
55777;DHT22;54079;44.540;18.784;2023-06-19T07:01:57;46.00;47.70
55777;DHT22;54079;44.540;18.784;2023-06-19T07:04:23;47.90;47.30
55777;DHT22;54079;44.540;18.784;2023-06-19T07:06:49;47.70;46.60
55777;DHT22;54079;44.540;18.784;2023-06-19T07:09:15;47.50;47.30
55777;DHT22;54079;44.540;18.784;2023-06-19T07:11:41;47.00;47.50
55777;DHT22;54079;44.540;18.784;2023-06-19T07:14:07;47.70;47.40
55777;DHT22;54079;44.540;18.784;2023-06-19T07:16:33;47.40;46.80
55777;DHT22;54079;44.540;18.784;2023-06-19T07:18:59;47.80;47.10
55777;DHT22;54079;44.540;18.784;2023-06-19T07:21:27;49.30;46.20
55777;DHT22;54079;44.540;18.784;2023-06-19T07:24:00;50.60;44.90
55777;DHT22;54079;44.540;18.784;2023-06-19T07:26:25;50.70;45.40
55777;DHT22;54079;44.540;18.784;2023-06-19T07:28:51;49.70;44.30
55777;DHT22;54079;44.540;18.784;2023-06-19T07:31:17;51.30;43.20
55777;DHT22;54079;44.540;18.784;2023-06-19T07:33:43;52.00;43.20
55777;DHT22;54079;44.540;18.784;2023-06-19T07:36:09;52.10;42.80
55777;DHT22;54079;44.540;18.784;2023-06-19T07:38:39;52.90;41.80
55777;DHT22;54079;44.540;18.784;2023-06-19T07:41:05;52.50;41.30
55777;DHT22;54079;44.540;18.784;2023-06-19T07:43:33;52.30;41.50
55777;DHT22;54079;44.540;18.784;2023-06-19T07:45:59;52.50;41.10
55777;DHT22;54079;44.540;18.784;2023-06-19T07:48:24;52.50;41.40
55777;DHT22;54079;44.540;18.784;2023-06-19T07:50:52;51.80;41.40
55777;DHT22;54079;44.540;18.784;2023-06-19T07:53:18;52.90;41.70
55777;DHT22;54079;44.540;18.784;2023-06-19T07:55:44;53.40;41.20
55777;DHT22;54079;44.540;18.784;2023-06-19T07:58:10;52.90;41.20
55777;DHT22;54079;44.540;18.784;2023-06-19T08:00:36;53.00;41.20
55777;DHT22;54079;44.540;18.784;2023-06-19T08:03:02;52.30;40.50
55777;DHT22;54079;44.540;18.784;2023-06-19T08:05:28;51.80;40.60
55777;DHT22;54079;44.540;18.784;2023-06-19T08:07:55;51.50;41.10
55777;DHT22;54079;44.540;18.784;2023-06-19T08:10:21;51.00;41.10
55777;DHT22;54079;44.540;18.784;2023-06-19T08:12:47;51.90;41.10
55777;DHT22;54079;44.540;18.784;2023-06-19T08:15:13;51.90;40.30
55777;DHT22;54079;44.540;18.784;2023-06-19T08:17:40;50.30;42.10
55777;DHT22;54079;44.540;18.784;2023-06-19T08:20:07;50.90;41.60
55777;DHT22;54079;44.540;18.784;2023-06-19T08:22:34;51.00;41.00
55777;DHT22;54079;44.540;18.784;2023-06-19T08:25:00;51.60;41.20
55777;DHT22;54079;44.540;18.784;2023-06-19T08:27:26;51.10;40.70
55777;DHT22;54079;44.540;18.784;2023-06-19T08:29:53;50.40;42.40
55777;DHT22;54079;44.540;18.784;2023-06-19T08:32:19;49.00;42.20
55777;DHT22;54079;44.540;18.784;2023-06-19T08:34:45;50.80;41.50
55777;DHT22;54079;44.540;18.784;2023-06-19T08:37:11;52.00;40.90
55777;DHT22;54079;44.540;18.784;2023-06-19T08:39:37;50.70;41.10
55777;DHT22;54079;44.540;18.784;2023-06-19T08:42:08;50.00;41.30
55777;DHT22;54079;44.540;18.784;2023-06-19T08:44:35;51.50;40.50
55777;DHT22;54079;44.540;18.784;2023-06-19T08:47:05;52.20;40.70
55777;DHT22;54079;44.540;18.784;2023-06-19T08:49:35;50.90;40.70
55777;DHT22;54079;44.540;18.784;2023-06-19T08:52:02;52.00;40.60
55777;DHT22;54079;44.540;18.784;2023-06-19T08:54:29;52.40;39.80
55777;DHT22;54079;44.540;18.784;2023-06-19T08:56:55;51.20;40.30
55777;DHT22;54079;44.540;18.784;2023-06-19T08:59:21;50.30;41.50
55777;DHT22;54079;44.540;18.784;2023-06-19T09:01:52;51.00;41.90
55777;DHT22;54079;44.540;18.784;2023-06-19T09:04:23;51.90;41.00
55777;DHT22;54079;44.540;18.784;2023-06-19T09:06:58;49.70;41.40
55777;DHT22;54079;44.540;18.784;2023-06-19T09:09:25;46.70;42.60
55777;DHT22;54079;44.540;18.784;2023-06-19T09:12:06;43.90;43.10
55777;DHT22;54079;44.540;18.784;2023-06-19T09:14:34;41.20;45.10
55777;DHT22;54079;44.540;18.784;2023-06-19T09:17:05;39.00;46.70
55777;DHT22;54079;44.540;18.784;2023-06-19T09:19:32;38.80;45.90
55777;DHT22;54079;44.540;18.784;2023-06-19T09:22:08;37.70;47.50
55777;DHT22;54079;44.540;18.784;2023-06-19T09:24:39;37.60;46.20
55777;DHT22;54079;44.540;18.784;2023-06-19T09:27:05;37.50;46.50
55777;DHT22;54079;44.540;18.784;2023-06-19T09:29:31;37.00;46.40
55777;DHT22;54079;44.540;18.784;2023-06-19T09:31:57;37.10;47.40
55777;DHT22;54079;44.540;18.784;2023-06-19T09:34:23;36.50;48.40
55777;DHT22;54079;44.540;18.784;2023-06-19T09:36:50;36.00;47.30
55777;DHT22;54079;44.540;18.784;2023-06-19T09:39:17;35.40;49.10
55777;DHT22;54079;44.540;18.784;2023-06-19T09:41:46;35.10;48.80
55777;DHT22;54079;44.540;18.784;2023-06-19T09:44:13;35.10;48.00
55777;DHT22;54079;44.540;18.784;2023-06-19T09:46:41;35.20;49.20
55777;DHT22;54079;44.540;18.784;2023-06-19T09:49:11;35.10;49.40
55777;DHT22;54079;44.540;18.784;2023-06-19T09:51:41;35.30;49.40
55777;DHT22;54079;44.540;18.784;2023-06-19T09:54:10;34.90;48.50
55777;DHT22;54079;44.540;18.784;2023-06-19T09:56:36;34.70;48.10
55777;DHT22;54079;44.540;18.784;2023-06-19T09:59:04;34.70;49.00
55777;DHT22;54079;44.540;18.784;2023-06-19T10:01:31;34.40;47.40
55777;DHT22;54079;44.540;18.784;2023-06-19T10:04:08;34.40;49.60
55777;DHT22;54079;44.540;18.784;2023-06-19T10:06:46;34.80;47.70
55777;DHT22;54079;44.540;18.784;2023-06-19T10:09:15;35.00;46.50
55777;DHT22;54079;44.540;18.784;2023-06-19T10:11:51;34.90;47.70
55777;DHT22;54079;44.540;18.784;2023-06-19T10:14:19;34.90;44.80
55777;DHT22;54079;44.540;18.784;2023-06-19T10:16:45;35.00;45.50
55777;DHT22;54079;44.540;18.784;2023-06-19T10:19:15;34.80;47.10
55777;DHT22;54079;44.540;18.784;2023-06-19T10:21:46;34.80;47.10
55777;DHT22;54079;44.540;18.784;2023-06-19T10:24:17;34.80;49.70
55777;DHT22;54079;44.540;18.784;2023-06-19T10:26:56;34.50;47.80
55777;DHT22;54079;44.540;18.784;2023-06-19T10:29:23;34.50;47.60
55777;DHT22;54079;44.540;18.784;2023-06-19T10:31:50;34.60;46.90
55777;DHT22;54079;44.540;18.784;2023-06-19T10:34:16;34.30;47.80
55777;DHT22;54079;44.540;18.784;2023-06-19T10:36:41;34.50;47.70
55777;DHT22;54079;44.540;18.784;2023-06-19T10:39:07;34.20;46.60
55777;DHT22;54079;44.540;18.784;2023-06-19T10:41:34;34.20;48.70
55777;DHT22;54079;44.540;18.784;2023-06-19T10:44:04;34.30;49.10
55777;DHT22;54079;44.540;18.784;2023-06-19T10:46:35;34.20;48.80
55777;DHT22;54079;44.540;18.784;2023-06-19T10:49:06;33.90;46.10
55777;DHT22;54079;44.540;18.784;2023-06-19T10:51:40;33.90;47.40
55777;DHT22;54079;44.540;18.784;2023-06-19T10:54:08;34.00;49.90
55777;DHT22;54079;44.540;18.784;2023-06-19T10:56:35;34.00;48.20
55777;DHT22;54079;44.540;18.784;2023-06-19T10:59:04;34.20;49.20
55777;DHT22;54079;44.540;18.784;2023-06-19T11:01:36;34.00;45.90
55777;DHT22;54079;44.540;18.784;2023-06-19T11:04:06;34.10;46.80
55777;DHT22;54079;44.540;18.784;2023-06-19T11:06:32;33.80;47.90
55777;DHT22;54079;44.540;18.784;2023-06-19T11:08:58;33.40;47.70
55777;DHT22;54079;44.540;18.784;2023-06-19T11:11:47;33.30;47.80
55777;DHT22;54079;44.540;18.784;2023-06-19T11:14:15;33.50;49.40
55777;DHT22;54079;44.540;18.784;2023-06-19T11:16:50;33.40;47.60
55777;DHT22;54079;44.540;18.784;2023-06-19T11:19:19;33.50;48.90
55777;DHT22;54079;44.540;18.784;2023-06-19T11:21:47;33.10;48.20
55777;DHT22;54079;44.540;18.784;2023-06-19T11:24:14;33.00;47.70
55777;DHT22;54079;44.540;18.784;2023-06-19T11:26:42;32.90;49.20
55777;DHT22;54079;44.540;18.784;2023-06-19T11:29:25;33.10;47.50
55777;DHT22;54079;44.540;18.784;2023-06-19T11:32:04;33.10;46.30
55777;DHT22;54079;44.540;18.784;2023-06-19T11:34:34;32.90;46.70
55777;DHT22;54079;44.540;18.784;2023-06-19T11:37:22;33.00;49.30
55777;DHT22;54079;44.540;18.784;2023-06-19T11:39:49;33.50;48.90
55777;DHT22;54079;44.540;18.784;2023-06-19T11:42:16;33.20;48.00
55777;DHT22;54079;44.540;18.784;2023-06-19T11:45:02;33.10;47.80
55777;DHT22;54079;44.540;18.784;2023-06-19T11:47:31;32.60;47.10
55777;DHT22;54079;44.540;18.784;2023-06-19T11:49:58;32.90;49.40
55777;DHT22;54079;44.540;18.784;2023-06-19T11:52:24;33.10;48.10
55777;DHT22;54079;44.540;18.784;2023-06-19T11:54:50;33.20;48.90
55777;DHT22;54079;44.540;18.784;2023-06-19T11:57:17;33.30;46.80
55777;DHT22;54079;44.540;18.784;2023-06-19T11:59:43;33.10;49.00
55777;DHT22;54079;44.540;18.784;2023-06-19T12:02:09;33.20;49.90
55777;DHT22;54079;44.540;18.784;2023-06-19T12:04:35;32.80;49.40
55777;DHT22;54079;44.540;18.784;2023-06-19T12:07:02;33.10;47.70
55777;DHT22;54079;44.540;18.784;2023-06-19T12:09:30;33.30;48.40
55777;DHT22;54079;44.540;18.784;2023-06-19T12:11:58;33.40;47.90
55777;DHT22;54079;44.540;18.784;2023-06-19T12:14:24;33.40;49.40
55777;DHT22;54079;44.540;18.784;2023-06-19T12:16:50;33.20;48.20
55777;DHT22;54079;44.540;18.784;2023-06-19T12:19:16;32.60;46.90
55777;DHT22;54079;44.540;18.784;2023-06-19T12:21:42;32.40;47.70
55777;DHT22;54079;44.540;18.784;2023-06-19T12:24:08;32.50;48.20
55777;DHT22;54079;44.540;18.784;2023-06-19T12:26:35;32.30;50.20
55777;DHT22;54079;44.540;18.784;2023-06-19T12:29:05;32.40;50.70
55777;DHT22;54079;44.540;18.784;2023-06-19T12:31:35;32.40;51.30
55777;DHT22;54079;44.540;18.784;2023-06-19T12:34:02;32.50;51.90
55777;DHT22;54079;44.540;18.784;2023-06-19T12:36:28;32.70;50.50
55777;DHT22;54079;44.540;18.784;2023-06-19T12:38:56;32.70;48.90
55777;DHT22;54079;44.540;18.784;2023-06-19T12:41:22;32.60;48.10
55777;DHT22;54079;44.540;18.784;2023-06-19T12:43:49;32.70;49.00
55777;DHT22;54079;44.540;18.784;2023-06-19T12:46:15;32.70;48.50
55777;DHT22;54079;44.540;18.784;2023-06-19T12:48:41;32.80;48.80
55777;DHT22;54079;44.540;18.784;2023-06-19T12:51:07;32.70;48.50
55777;DHT22;54079;44.540;18.784;2023-06-19T12:53:33;32.80;49.50
55777;DHT22;54079;44.540;18.784;2023-06-19T12:55:59;32.80;50.30
55777;DHT22;54079;44.540;18.784;2023-06-19T12:58:26;32.80;51.50
55777;DHT22;54079;44.540;18.784;2023-06-19T13:00:53;32.80;48.50
55777;DHT22;54079;44.540;18.784;2023-06-19T13:03:19;33.00;48.40
55777;DHT22;54079;44.540;18.784;2023-06-19T13:05:48;32.90;49.30
55777;DHT22;54079;44.540;18.784;2023-06-19T13:08:15;32.80;50.70
55777;DHT22;54079;44.540;18.784;2023-06-19T13:10:41;32.80;49.50
55777;DHT22;54079;44.540;18.784;2023-06-19T13:13:07;32.70;51.70
55777;DHT22;54079;44.540;18.784;2023-06-19T13:15:35;32.80;51.30
55777;DHT22;54079;44.540;18.784;2023-06-19T13:18:01;32.80;49.70
55777;DHT22;54079;44.540;18.784;2023-06-19T13:20:27;32.80;49.00
55777;DHT22;54079;44.540;18.784;2023-06-19T13:22:53;32.80;48.90
55777;DHT22;54079;44.540;18.784;2023-06-19T13:25:21;32.60;51.10
55777;DHT22;54079;44.540;18.784;2023-06-19T13:27:47;32.30;52.40
55777;DHT22;54079;44.540;18.784;2023-06-19T13:30:14;32.40;52.80
55777;DHT22;54079;44.540;18.784;2023-06-19T13:32:40;32.50;50.40
55777;DHT22;54079;44.540;18.784;2023-06-19T13:35:06;32.50;48.90
55777;DHT22;54079;44.540;18.784;2023-06-19T13:37:37;32.60;50.20
55777;DHT22;54079;44.540;18.784;2023-06-19T13:40:05;32.60;50.60
55777;DHT22;54079;44.540;18.784;2023-06-19T13:42:31;32.60;50.20
55777;DHT22;54079;44.540;18.784;2023-06-19T13:44:57;32.60;49.40
55777;DHT22;54079;44.540;18.784;2023-06-19T13:47:23;32.50;49.80
55777;DHT22;54079;44.540;18.784;2023-06-19T13:49:52;32.40;50.00
55777;DHT22;54079;44.540;18.784;2023-06-19T13:52:18;32.40;49.10
55777;DHT22;54079;44.540;18.784;2023-06-19T13:54:44;32.40;50.40
55777;DHT22;54079;44.540;18.784;2023-06-19T13:57:10;32.30;48.60
55777;DHT22;54079;44.540;18.784;2023-06-19T13:59:36;32.20;50.60
55777;DHT22;54079;44.540;18.784;2023-06-19T14:02:03;32.20;51.50
55777;DHT22;54079;44.540;18.784;2023-06-19T14:04:29;32.20;50.60
55777;DHT22;54079;44.540;18.784;2023-06-19T14:06:55;32.20;51.20
55777;DHT22;54079;44.540;18.784;2023-06-19T14:09:21;32.20;50.80
55777;DHT22;54079;44.540;18.784;2023-06-19T14:11:48;32.30;52.20
55777;DHT22;54079;44.540;18.784;2023-06-19T14:14:13;32.40;50.80
55777;DHT22;54079;44.540;18.784;2023-06-19T14:16:39;32.50;49.70
55777;DHT22;54079;44.540;18.784;2023-06-19T14:19:05;32.60;49.80
55777;DHT22;54079;44.540;18.784;2023-06-19T14:21:31;32.60;51.10
55777;DHT22;54079;44.540;18.784;2023-06-19T14:23:57;32.70;50.70
55777;DHT22;54079;44.540;18.784;2023-06-19T14:26:23;32.60;50.40
55777;DHT22;54079;44.540;18.784;2023-06-19T14:28:49;32.30;51.90
55777;DHT22;54079;44.540;18.784;2023-06-19T14:31:20;32.40;52.30
55777;DHT22;54079;44.540;18.784;2023-06-19T14:33:46;32.40;52.00
55777;DHT22;54079;44.540;18.784;2023-06-19T14:36:12;32.50;52.60
55777;DHT22;54079;44.540;18.784;2023-06-19T14:38:38;32.50;51.30
55777;DHT22;54079;44.540;18.784;2023-06-19T14:41:04;32.30;50.80
55777;DHT22;54079;44.540;18.784;2023-06-19T14:43:30;32.40;52.00
55777;DHT22;54079;44.540;18.784;2023-06-19T14:45:58;32.30;54.30
55777;DHT22;54079;44.540;18.784;2023-06-19T14:48:24;32.10;54.50
55777;DHT22;54079;44.540;18.784;2023-06-19T14:50:50;32.00;53.00
55777;DHT22;54079;44.540;18.784;2023-06-19T14:53:16;32.00;52.70
55777;DHT22;54079;44.540;18.784;2023-06-19T14:55:42;32.00;52.90
55777;DHT22;54079;44.540;18.784;2023-06-19T14:58:12;32.10;55.40
55777;DHT22;54079;44.540;18.784;2023-06-19T15:00:38;32.00;53.40
55777;DHT22;54079;44.540;18.784;2023-06-19T15:03:05;32.20;52.60
55777;DHT22;54079;44.540;18.784;2023-06-19T15:05:32;32.10;52.30
55777;DHT22;54079;44.540;18.784;2023-06-19T15:07:58;32.20;51.90
55777;DHT22;54079;44.540;18.784;2023-06-19T15:10:24;32.00;51.90
55777;DHT22;54079;44.540;18.784;2023-06-19T15:12:50;31.70;53.00
55777;DHT22;54079;44.540;18.784;2023-06-19T15:15:16;31.50;53.00